sensor_id;sensor_type;location;lat;lon;timestamp;pressure;altitude;pressure_sealevel;temperature;humidity
6128;BME280;7073;42.672;23.256;2022-11-02T00:02:18;94992.91;;;11.48;90.99
6128;BME280;7073;42.672;23.256;2022-11-02T00:04:45;95037.06;;;11.43;91.86
6128;BME280;7073;42.672;23.256;2022-11-02T00:07:11;95009.19;;;11.50;93.42
6128;BME280;7073;42.672;23.256;2022-11-02T00:09:38;95022.78;;;11.72;92.02
6128;BME280;7073;42.672;23.256;2022-11-02T00:12:06;95008.78;;;11.53;91.59
6128;BME280;7073;42.672;23.256;2022-11-02T00:14:33;95029.69;;;11.40;92.94
6128;BME280;7073;42.672;23.256;2022-11-02T00:17:01;95028.84;;;11.46;93.69
6128;BME280;7073;42.672;23.256;2022-11-02T00:19:28;95027.41;;;11.57;92.52
6128;BME280;7073;42.672;23.256;2022-11-02T00:21:56;95028.00;;;11.79;92.74
6128;BME280;7073;42.672;23.256;2022-11-02T00:24:23;95023.59;;;11.79;91.80
6128;BME280;7073;42.672;23.256;2022-11-02T00:26:50;95027.81;;;11.74;91.82
6128;BME280;7073;42.672;23.256;2022-11-02T00:29:18;95018.16;;;11.67;91.14
6128;BME280;7073;42.672;23.256;2022-11-02T00:31:45;95021.38;;;11.56;90.75
6128;BME280;7073;42.672;23.256;2022-11-02T00:34:14;95017.97;;;11.62;90.83
6128;BME280;7073;42.672;23.256;2022-11-02T00:36:40;95022.78;;;11.65;91.41
6128;BME280;7073;42.672;23.256;2022-11-02T00:39:07;95028.84;;;11.53;91.28
6128;BME280;7073;42.672;23.256;2022-11-02T00:41:34;95025.81;;;11.62;91.07
6128;BME280;7073;42.672;23.256;2022-11-02T00:44:01;95018.56;;;11.78;90.41
6128;BME280;7073;42.672;23.256;2022-11-02T00:46:27;95013.19;;;11.46;90.33
6128;BME280;7073;42.672;23.256;2022-11-02T00:48:54;95021.78;;;11.66;90.55
6128;BME280;7073;42.672;23.256;2022-11-02T00:51:22;95019.03;;;11.42;90.73
6128;BME280;7073;42.672;23.256;2022-11-02T00:53:49;95020.22;;;11.39;92.49
6128;BME280;7073;42.672;23.256;2022-11-02T00:56:16;95017.63;;;11.20;92.74
6128;BME280;7073;42.672;23.256;2022-11-02T00:58:43;95023.06;;;11.31;92.79
6128;BME280;7073;42.672;23.256;2022-11-02T01:01:10;95000.75;;;11.35;92.10
6128;BME280;7073;42.672;23.256;2022-11-02T01:03:36;95026.06;;;11.15;92.81
6128;BME280;7073;42.672;23.256;2022-11-02T01:06:08;95017.06;;;10.91;94.56
6128;BME280;7073;42.672;23.256;2022-11-02T01:08:36;95027.09;;;11.27;93.53
6128;BME280;7073;42.672;23.256;2022-11-02T01:11:11;95021.44;;;11.17;93.02
6128;BME280;7073;42.672;23.256;2022-11-02T01:13:38;95032.50;;;11.26;93.49
6128;BME280;7073;42.672;23.256;2022-11-02T01:16:05;95022.69;;;10.95;94.29
6128;BME280;7073;42.672;23.256;2022-11-02T01:18:32;95024.88;;;10.91;95.45
6128;BME280;7073;42.672;23.256;2022-11-02T01:20:59;95034.31;;;10.79;95.11
6128;BME280;7073;42.672;23.256;2022-11-02T01:23:27;95031.88;;;10.91;96.39
6128;BME280;7073;42.672;23.256;2022-11-02T01:25:58;95023.84;;;10.73;96.09
6128;BME280;7073;42.672;23.256;2022-11-02T01:28:24;95024.25;;;10.57;96.95
6128;BME280;7073;42.672;23.256;2022-11-02T01:30:51;95019.06;;;10.83;96.42
6128;BME280;7073;42.672;23.256;2022-11-02T01:33:18;95020.47;;;10.98;95.64
6128;BME280;7073;42.672;23.256;2022-11-02T01:35:45;95018.28;;;11.09;94.78
6128;BME280;7073;42.672;23.256;2022-11-02T01:38:12;95009.84;;;11.13;94.62
6128;BME280;7073;42.672;23.256;2022-11-02T01:40:39;95009.81;;;10.93;94.11
6128;BME280;7073;42.672;23.256;2022-11-02T01:43:20;95001.81;;;10.95;94.80
6128;BME280;7073;42.672;23.256;2022-11-02T01:45:50;94986.59;;;10.92;94.21
6128;BME280;7073;42.672;23.256;2022-11-02T01:48:20;95002.22;;;11.18;93.56
6128;BME280;7073;42.672;23.256;2022-11-02T01:50:52;94982.38;;;11.11;92.26
6128;BME280;7073;42.672;23.256;2022-11-02T01:53:19;95003.19;;;11.30;92.08
6128;BME280;7073;42.672;23.256;2022-11-02T01:55:46;94996.34;;;11.36;91.71
6128;BME280;7073;42.672;23.256;2022-11-02T01:58:13;94999.22;;;10.88;93.03
6128;BME280;7073;42.672;23.256;2022-11-02T02:00:41;94996.22;;;11.11;93.48
6128;BME280;7073;42.672;23.256;2022-11-02T02:03:10;94990.56;;;11.27;92.69
6128;BME280;7073;42.672;23.256;2022-11-02T02:05:40;94999.00;;;11.10;92.68
6128;BME280;7073;42.672;23.256;2022-11-02T02:08:08;94983.16;;;11.11;92.48
6128;BME280;7073;42.672;23.256;2022-11-02T02:10:37;95002.41;;;11.10;93.45
6128;BME280;7073;42.672;23.256;2022-11-02T02:13:05;94993.78;;;11.16;92.66
6128;BME280;7073;42.672;23.256;2022-11-02T02:15:38;94998.59;;;11.32;92.39
6128;BME280;7073;42.672;23.256;2022-11-02T02:18:12;94990.78;;;10.86;93.65
6128;BME280;7073;42.672;23.256;2022-11-02T02:21:02;94987.97;;;11.27;92.28
6128;BME280;7073;42.672;23.256;2022-11-02T02:23:52;94993.34;;;11.39;90.65
6128;BME280;7073;42.672;23.256;2022-11-02T02:26:35;95000.53;;;11.50;89.51
6128;BME280;7073;42.672;23.256;2022-11-02T02:29:10;94989.34;;;11.30;90.29
6128;BME280;7073;42.672;23.256;2022-11-02T02:31:44;94984.53;;;11.33;90.46
6128;BME280;7073;42.672;23.256;2022-11-02T02:34:17;94984.38;;;10.95;93.18
6128;BME280;7073;42.672;23.256;2022-11-02T02:36:48;94981.94;;;11.07;91.87
6128;BME280;7073;42.672;23.256;2022-11-02T02:39:19;94988.59;;;11.03;92.60
6128;BME280;7073;42.672;23.256;2022-11-02T02:41:55;94986.97;;;11.09;92.00
6128;BME280;7073;42.672;23.256;2022-11-02T02:44:28;94987.00;;;10.95;92.11
6128;BME280;7073;42.672;23.256;2022-11-02T02:46:57;94992.59;;;11.05;91.75
6128;BME280;7073;42.672;23.256;2022-11-02T02:49:29;94988.97;;;11.06;92.04
6128;BME280;7073;42.672;23.256;2022-11-02T02:51:59;94988.19;;;10.93;91.66
6128;BME280;7073;42.672;23.256;2022-11-02T02:54:30;94986.38;;;11.00;92.80
6128;BME280;7073;42.672;23.256;2022-11-02T02:57:02;94978.56;;;11.00;92.58
6128;BME280;7073;42.672;23.256;2022-11-02T02:59:36;94985.59;;;11.06;91.45
6128;BME280;7073;42.672;23.256;2022-11-02T03:02:06;94988.97;;;10.93;92.75
6128;BME280;7073;42.672;23.256;2022-11-02T03:04:35;94944.09;;;10.32;93.15
6128;BME280;7073;42.672;23.256;2022-11-02T03:07:23;94967.31;;;10.54;95.53
6128;BME280;7073;42.672;23.256;2022-11-02T03:09:55;94981.97;;;10.68;94.83
6128;BME280;7073;42.672;23.256;2022-11-02T03:12:37;94986.38;;;10.74;94.62
6128;BME280;7073;42.672;23.256;2022-11-02T03:15:12;94989.34;;;10.51;94.46
6128;BME280;7073;42.672;23.256;2022-11-02T03:17:45;94959.72;;;10.32;95.42
6128;BME280;7073;42.672;23.256;2022-11-02T03:20:21;95002.19;;;10.59;95.64
6128;BME280;7073;42.672;23.256;2022-11-02T03:23:00;94998.19;;;10.70;95.26
6128;BME280;7073;42.672;23.256;2022-11-02T03:25:38;94974.34;;;10.53;95.21
6128;BME280;7073;42.672;23.256;2022-11-02T03:28:12;94992.41;;;10.81;95.12
6128;BME280;7073;42.672;23.256;2022-11-02T03:30:46;95009.78;;;10.41;95.55
6128;BME280;7073;42.672;23.256;2022-11-02T03:33:18;95002.19;;;10.39;97.56
6128;BME280;7073;42.672;23.256;2022-11-02T03:35:51;94961.31;;;10.27;97.07
6128;BME280;7073;42.672;23.256;2022-11-02T03:38:23;94995.59;;;10.57;96.83
6128;BME280;7073;42.672;23.256;2022-11-02T03:40:53;94987.78;;;10.76;96.35
6128;BME280;7073;42.672;23.256;2022-11-02T03:43:22;94992.59;;;10.92;95.69
6128;BME280;7073;42.672;23.256;2022-11-02T03:45:52;94988.56;;;10.96;93.89
6128;BME280;7073;42.672;23.256;2022-11-02T03:48:25;94992.41;;;10.74;94.56
6128;BME280;7073;42.672;23.256;2022-11-02T03:50:57;94987.97;;;10.88;94.54
6128;BME280;7073;42.672;23.256;2022-11-02T03:53:30;94976.97;;;10.86;94.38
6128;BME280;7073;42.672;23.256;2022-11-02T03:56:04;94979.38;;;10.68;93.78
6128;BME280;7073;42.672;23.256;2022-11-02T03:58:32;94984.19;;;10.84;94.42
6128;BME280;7073;42.672;23.256;2022-11-02T04:01:03;94977.53;;;10.49;95.79
6128;BME280;7073;42.672;23.256;2022-11-02T04:03:32;94982.75;;;10.62;96.22
6128;BME280;7073;42.672;23.256;2022-11-02T04:06:00;94979.56;;;10.60;95.66
6128;BME280;7073;42.672;23.256;2022-11-02T04:08:31;94984.19;;;10.71;95.74
6128;BME280;7073;42.672;23.256;2022-11-02T04:11:00;94979.56;;;10.73;94.60
6128;BME280;7073;42.672;23.256;2022-11-02T04:13:44;94981.78;;;10.56;95.03
6128;BME280;7073;42.672;23.256;2022-11-02T04:16:30;94993.78;;;10.51;94.96
6128;BME280;7073;42.672;23.256;2022-11-02T04:18:57;94987.56;;;10.52;96.34
6128;BME280;7073;42.672;23.256;2022-11-02T04:21:41;94987.78;;;10.50;95.79
6128;BME280;7073;42.672;23.256;2022-11-02T04:24:28;94997.19;;;10.58;95.37
6128;BME280;7073;42.672;23.256;2022-11-02T04:27:12;94991.19;;;10.64;94.88
6128;BME280;7073;42.672;23.256;2022-11-02T04:29:39;95000.59;;;10.52;95.04
6128;BME280;7073;42.672;23.256;2022-11-02T04:32:07;95001.97;;;10.34;96.50
6128;BME280;7073;42.672;23.256;2022-11-02T04:34:35;94998.91;;;10.18;97.91
6128;BME280;7073;42.672;23.256;2022-11-02T04:37:00;95002.47;;;10.10;98.36
6128;BME280;7073;42.672;23.256;2022-11-02T04:39:47;94994.38;;;9.79;99.55
6128;BME280;7073;42.672;23.256;2022-11-02T04:42:13;94974.34;;;9.79;100.00
6128;BME280;7073;42.672;23.256;2022-11-02T04:44:40;94987.41;;;9.99;100.00
6128;BME280;7073;42.672;23.256;2022-11-02T04:47:08;94981.00;;;9.95;100.00
6128;BME280;7073;42.672;23.256;2022-11-02T04:49:35;94987.00;;;9.96;100.00
6128;BME280;7073;42.672;23.256;2022-11-02T04:52:02;94983.63;;;10.02;100.00
6128;BME280;7073;42.672;23.256;2022-11-02T04:54:28;94985.31;;;10.16;99.94
6128;BME280;7073;42.672;23.256;2022-11-02T04:56:55;94981.28;;;10.13;99.61
6128;BME280;7073;42.672;23.256;2022-11-02T04:59:22;94996.53;;;10.16;98.93
6128;BME280;7073;42.672;23.256;2022-11-02T05:01:49;94995.75;;;10.35;98.64
6128;BME280;7073;42.672;23.256;2022-11-02T05:04:17;95006.63;;;10.46;97.36
6128;BME280;7073;42.672;23.256;2022-11-02T05:06:43;95010.59;;;10.35;98.00
6128;BME280;7073;42.672;23.256;2022-11-02T05:09:10;95016.44;;;10.50;97.10
6128;BME280;7073;42.672;23.256;2022-11-02T05:11:37;95009.53;;;10.16;98.57
6128;BME280;7073;42.672;23.256;2022-11-02T05:14:04;95008.34;;;10.19;99.70
6128;BME280;7073;42.672;23.256;2022-11-02T05:16:31;95005.56;;;10.33;99.47
6128;BME280;7073;42.672;23.256;2022-11-02T05:18:58;95008.75;;;10.16;98.78
6128;BME280;7073;42.672;23.256;2022-11-02T05:21:26;95002.47;;;10.10;99.59
6128;BME280;7073;42.672;23.256;2022-11-02T05:23:53;95010.97;;;10.38;99.49
6128;BME280;7073;42.672;23.256;2022-11-02T05:26:19;95018.59;;;10.27;98.13
6128;BME280;7073;42.672;23.256;2022-11-02T05:28:46;95022.13;;;10.13;98.94
6128;BME280;7073;42.672;23.256;2022-11-02T05:31:15;95027.84;;;10.42;98.54
6128;BME280;7073;42.672;23.256;2022-11-02T05:33:41;95035.03;;;10.54;98.25
6128;BME280;7073;42.672;23.256;2022-11-02T05:36:08;95035.88;;;10.67;96.93
6128;BME280;7073;42.672;23.256;2022-11-02T05:38:36;95034.47;;;10.65;96.34
6128;BME280;7073;42.672;23.256;2022-11-02T05:41:04;95027.69;;;10.77;96.54
6128;BME280;7073;42.672;23.256;2022-11-02T05:43:30;95033.09;;;10.95;95.90
6128;BME280;7073;42.672;23.256;2022-11-02T05:45:59;95036.53;;;10.95;95.25
6128;BME280;7073;42.672;23.256;2022-11-02T05:48:28;95049.16;;;11.05;95.22
6128;BME280;7073;42.672;23.256;2022-11-02T05:50:56;95052.75;;;10.97;95.54
6128;BME280;7073;42.672;23.256;2022-11-02T05:53:24;95052.34;;;10.87;96.27
6128;BME280;7073;42.672;23.256;2022-11-02T05:55:56;95040.53;;;11.11;95.45
6128;BME280;7073;42.672;23.256;2022-11-02T05:58:23;95052.53;;;11.25;95.16
6128;BME280;7073;42.672;23.256;2022-11-02T06:00:50;95057.53;;;11.46;94.45
6128;BME280;7073;42.672;23.256;2022-11-02T06:03:16;95048.47;;;11.75;94.56
6128;BME280;7073;42.672;23.256;2022-11-02T06:05:43;95055.50;;;11.88;93.88
6128;BME280;7073;42.672;23.256;2022-11-02T06:08:10;95064.38;;;11.34;93.80
6128;BME280;7073;42.672;23.256;2022-11-02T06:10:37;95060.75;;;11.22;95.67
6128;BME280;7073;42.672;23.256;2022-11-02T06:13:08;95063.16;;;11.76;96.55
6128;BME280;7073;42.672;23.256;2022-11-02T06:15:35;95057.72;;;11.84;94.26
6128;BME280;7073;42.672;23.256;2022-11-02T06:18:02;95057.38;;;12.18;92.61
6128;BME280;7073;42.672;23.256;2022-11-02T06:20:29;95056.47;;;12.44;90.36
6128;BME280;7073;42.672;23.256;2022-11-02T06:22:56;95060.34;;;12.35;90.12
6128;BME280;7073;42.672;23.256;2022-11-02T06:25:23;95068.41;;;12.65;89.22
6128;BME280;7073;42.672;23.256;2022-11-02T06:27:51;95070.72;;;12.48;88.67
6128;BME280;7073;42.672;23.256;2022-11-02T06:30:21;95068.81;;;12.24;90.01
6128;BME280;7073;42.672;23.256;2022-11-02T06:32:49;95067.59;;;12.64;88.93
6128;BME280;7073;42.672;23.256;2022-11-02T06:35:17;95070.56;;;12.74;88.22
6128;BME280;7073;42.672;23.256;2022-11-02T06:37:44;95069.94;;;12.79;87.64
6128;BME280;7073;42.672;23.256;2022-11-02T06:40:12;95076.16;;;12.78;86.94
6128;BME280;7073;42.672;23.256;2022-11-02T06:42:39;95075.56;;;13.14;85.64
6128;BME280;7073;42.672;23.256;2022-11-02T06:45:07;95075.59;;;13.07;85.56
6128;BME280;7073;42.672;23.256;2022-11-02T06:47:36;95078.09;;;13.27;83.34
6128;BME280;7073;42.672;23.256;2022-11-02T06:50:04;95078.16;;;13.63;81.63
6128;BME280;7073;42.672;23.256;2022-11-02T06:52:31;95082.81;;;13.61;80.89
6128;BME280;7073;42.672;23.256;2022-11-02T06:54:58;95073.53;;;13.16;83.48
6128;BME280;7073;42.672;23.256;2022-11-02T06:57:24;95072.16;;;13.38;82.42
6128;BME280;7073;42.672;23.256;2022-11-02T06:59:51;95068.25;;;13.47;82.24
6128;BME280;7073;42.672;23.256;2022-11-02T07:02:18;95063.19;;;13.70;80.54
6128;BME280;7073;42.672;23.256;2022-11-02T07:04:48;95067.00;;;14.10;78.12
6128;BME280;7073;42.672;23.256;2022-11-02T07:07:15;95062.41;;;14.06;78.43
6128;BME280;7073;42.672;23.256;2022-11-02T07:09:41;95062.75;;;14.09;77.22
6128;BME280;7073;42.672;23.256;2022-11-02T07:12:08;95065.25;;;14.41;76.04
6128;BME280;7073;42.672;23.256;2022-11-02T07:14:35;95054.00;;;14.52;75.68
6128;BME280;7073;42.672;23.256;2022-11-02T07:17:02;95069.75;;;14.82;74.08
6128;BME280;7073;42.672;23.256;2022-11-02T07:19:29;95062.84;;;14.99;72.86
6128;BME280;7073;42.672;23.256;2022-11-02T07:21:57;95073.31;;;14.99;72.65
6128;BME280;7073;42.672;23.256;2022-11-02T07:24:24;95077.69;;;15.05;72.24
6128;BME280;7073;42.672;23.256;2022-11-02T07:26:50;95074.06;;;15.17;71.34
6128;BME280;7073;42.672;23.256;2022-11-02T07:29:17;95080.34;;;15.16;71.13
6128;BME280;7073;42.672;23.256;2022-11-02T07:31:44;95067.00;;;15.18;71.20
6128;BME280;7073;42.672;23.256;2022-11-02T07:34:11;95064.69;;;15.74;68.85
6128;BME280;7073;42.672;23.256;2022-11-02T07:36:38;95071.34;;;15.36;70.11
6128;BME280;7073;42.672;23.256;2022-11-02T07:39:07;95074.28;;;15.69;68.67
6128;BME280;7073;42.672;23.256;2022-11-02T07:41:34;95069.00;;;15.80;67.72
6128;BME280;7073;42.672;23.256;2022-11-02T07:44:01;95064.97;;;16.13;65.84
6128;BME280;7073;42.672;23.256;2022-11-02T07:46:28;95059.53;;;16.42;64.59
6128;BME280;7073;42.672;23.256;2022-11-02T07:48:55;95066.53;;;16.25;65.41
6128;BME280;7073;42.672;23.256;2022-11-02T07:51:22;95067.47;;;16.71;63.59
6128;BME280;7073;42.672;23.256;2022-11-02T07:53:49;95062.47;;;16.86;62.30
6128;BME280;7073;42.672;23.256;2022-11-02T07:56:17;95063.34;;;16.75;63.05
6128;BME280;7073;42.672;23.256;2022-11-02T07:58:44;95056.47;;;16.34;63.67
6128;BME280;7073;42.672;23.256;2022-11-02T08:01:11;95051.97;;;16.58;63.33
6128;BME280;7073;42.672;23.256;2022-11-02T08:03:38;95052.81;;;16.75;61.28
6128;BME280;7073;42.672;23.256;2022-11-02T08:06:05;95051.00;;;16.92;61.03
6128;BME280;7073;42.672;23.256;2022-11-02T08:08:32;95053.50;;;16.98;60.71
6128;BME280;7073;42.672;23.256;2022-11-02T08:11:03;95049.50;;;16.96;60.28
6128;BME280;7073;42.672;23.256;2022-11-02T08:13:33;95051.75;;;16.59;61.79
6128;BME280;7073;42.672;23.256;2022-11-02T08:16:00;95047.47;;;16.86;60.35
6128;BME280;7073;42.672;23.256;2022-11-02T08:18:28;95040.03;;;17.28;59.10
6128;BME280;7073;42.672;23.256;2022-11-02T08:20:55;95046.22;;;17.67;59.16
6128;BME280;7073;42.672;23.256;2022-11-02T08:23:23;95036.91;;;17.81;57.83
6128;BME280;7073;42.672;23.256;2022-11-02T08:25:51;95034.91;;;18.10;56.41
6128;BME280;7073;42.672;23.256;2022-11-02T08:28:21;95024.63;;;18.52;55.26
6128;BME280;7073;42.672;23.256;2022-11-02T08:30:50;95030.69;;;18.74;55.71
6128;BME280;7073;42.672;23.256;2022-11-02T08:33:18;95036.66;;;18.91;55.51
6128;BME280;7073;42.672;23.256;2022-11-02T08:35:46;95038.69;;;18.84;54.53
6128;BME280;7073;42.672;23.256;2022-11-02T08:38:14;95030.03;;;19.47;53.53
6128;BME280;7073;42.672;23.256;2022-11-02T08:40:41;95042.44;;;19.15;54.27
6128;BME280;7073;42.672;23.256;2022-11-02T08:43:12;95034.97;;;18.80;54.71
6128;BME280;7073;42.672;23.256;2022-11-02T08:45:43;95038.03;;;19.57;53.41
6128;BME280;7073;42.672;23.256;2022-11-02T08:48:12;95008.56;;;19.75;52.63
6128;BME280;7073;42.672;23.256;2022-11-02T08:50:40;95033.41;;;19.79;52.79
6128;BME280;7073;42.672;23.256;2022-11-02T08:53:07;95036.34;;;19.78;51.83
6128;BME280;7073;42.672;23.256;2022-11-02T08:55:33;95030.28;;;19.82;51.69
6128;BME280;7073;42.672;23.256;2022-11-02T08:58:00;95021.38;;;19.57;52.06
6128;BME280;7073;42.672;23.256;2022-11-02T09:00:29;95024.88;;;20.09;51.39
6128;BME280;7073;42.672;23.256;2022-11-02T09:03:00;95018.47;;;20.57;50.17
6128;BME280;7073;42.672;23.256;2022-11-02T09:05:30;95025.72;;;21.02;49.23
6128;BME280;7073;42.672;23.256;2022-11-02T09:07:58;95014.81;;;20.78;49.01
6128;BME280;7073;42.672;23.256;2022-11-02T09:10:26;95015.88;;;20.92;48.84
6128;BME280;7073;42.672;23.256;2022-11-02T09:12:54;95019.09;;;21.04;47.99
6128;BME280;7073;42.672;23.256;2022-11-02T09:15:21;95017.56;;;21.44;47.71
6128;BME280;7073;42.672;23.256;2022-11-02T09:17:48;95009.28;;;21.00;47.93
6128;BME280;7073;42.672;23.256;2022-11-02T09:20:16;95008.75;;;21.68;47.95
6128;BME280;7073;42.672;23.256;2022-11-02T09:22:45;95006.28;;;22.22;45.35
6128;BME280;7073;42.672;23.256;2022-11-02T09:25:12;95002.44;;;22.48;46.38
6128;BME280;7073;42.672;23.256;2022-11-02T09:27:40;94994.72;;;22.52;45.55
6128;BME280;7073;42.672;23.256;2022-11-02T09:30:08;95003.22;;;23.03;44.35
6128;BME280;7073;42.672;23.256;2022-11-02T09:32:35;95001.69;;;23.64;43.12
6128;BME280;7073;42.672;23.256;2022-11-02T09:35:05;94999.28;;;24.63;41.07
6128;BME280;7073;42.672;23.256;2022-11-02T09:37:32;95002.63;;;24.31;42.21
6128;BME280;7073;42.672;23.256;2022-11-02T09:40:00;94995.09;;;25.96;39.69
6128;BME280;7073;42.672;23.256;2022-11-02T09:42:31;94991.00;;;26.31;38.11
6128;BME280;7073;42.672;23.256;2022-11-02T09:45:04;94983.06;;;26.39;38.45
6128;BME280;7073;42.672;23.256;2022-11-02T09:47:38;94988.16;;;25.81;38.21
6128;BME280;7073;42.672;23.256;2022-11-02T09:50:14;94977.53;;;26.22;38.86
6128;BME280;7073;42.672;23.256;2022-11-02T09:52:42;94979.75;;;25.88;38.55
6128;BME280;7073;42.672;23.256;2022-11-02T09:55:17;94967.75;;;25.07;40.18
6128;BME280;7073;42.672;23.256;2022-11-02T09:57:47;94965.97;;;25.35;39.89
6128;BME280;7073;42.672;23.256;2022-11-02T10:00:19;94963.50;;;25.06;39.49
6128;BME280;7073;42.672;23.256;2022-11-02T10:02:54;94959.78;;;25.85;38.47
6128;BME280;7073;42.672;23.256;2022-11-02T10:05:31;94957.13;;;26.26;37.85
6128;BME280;7073;42.672;23.256;2022-11-02T10:08:28;94953.25;;;25.91;39.07
6128;BME280;7073;42.672;23.256;2022-11-02T10:11:11;94948.34;;;26.89;38.18
6128;BME280;7073;42.672;23.256;2022-11-02T10:13:45;94933.69;;;26.09;37.39
6128;BME280;7073;42.672;23.256;2022-11-02T10:16:16;94935.50;;;26.77;36.21
6128;BME280;7073;42.672;23.256;2022-11-02T10:18:46;94936.53;;;26.27;36.76
6128;BME280;7073;42.672;23.256;2022-11-02T10:21:18;94924.25;;;27.11;35.88
6128;BME280;7073;42.672;23.256;2022-11-02T10:23:49;94921.97;;;27.71;35.02
6128;BME280;7073;42.672;23.256;2022-11-02T10:26:21;94918.69;;;28.13;33.93
6128;BME280;7073;42.672;23.256;2022-11-02T10:28:54;94933.44;;;28.41;34.21
6128;BME280;7073;42.672;23.256;2022-11-02T10:31:26;94926.44;;;27.84;33.41
6128;BME280;7073;42.672;23.256;2022-11-02T10:33:55;94924.03;;;28.78;33.00
6128;BME280;7073;42.672;23.256;2022-11-02T10:36:36;94913.75;;;28.55;33.29
6128;BME280;7073;42.672;23.256;2022-11-02T10:39:13;94916.09;;;28.39;32.15
6128;BME280;7073;42.672;23.256;2022-11-02T10:42:05;94910.44;;;28.66;33.17
6128;BME280;7073;42.672;23.256;2022-11-02T10:44:57;94896.38;;;28.52;32.43
6128;BME280;7073;42.672;23.256;2022-11-02T10:47:29;94899.78;;;28.10;33.91
6128;BME280;7073;42.672;23.256;2022-11-02T10:53:00;94887.69;;;27.90;32.81
6128;BME280;7073;42.672;23.256;2022-11-02T10:55:32;94892.88;;;28.43;30.67
6128;BME280;7073;42.672;23.256;2022-11-02T10:58:05;94888.97;;;28.49;30.99
6128;BME280;7073;42.672;23.256;2022-11-02T11:00:34;94889.91;;;28.53;30.19
6128;BME280;7073;42.672;23.256;2022-11-02T11:03:02;94885.53;;;29.00;29.74
6128;BME280;7073;42.672;23.256;2022-11-02T11:05:30;94885.78;;;28.56;29.88
6128;BME280;7073;42.672;23.256;2022-11-02T11:07:58;94875.84;;;28.56;28.94
6128;BME280;7073;42.672;23.256;2022-11-02T11:10:25;94878.09;;;28.97;28.09
6128;BME280;7073;42.672;23.256;2022-11-02T11:12:53;94872.09;;;28.83;28.44
6128;BME280;7073;42.672;23.256;2022-11-02T11:15:30;94871.63;;;28.98;27.32
6128;BME280;7073;42.672;23.256;2022-11-02T11:17:58;94868.66;;;28.65;28.40
6128;BME280;7073;42.672;23.256;2022-11-02T11:20:30;94866.91;;;28.78;28.28
6128;BME280;7073;42.672;23.256;2022-11-02T11:23:15;94859.94;;;28.51;26.22
6128;BME280;7073;42.672;23.256;2022-11-02T11:25:52;94857.72;;;28.36;26.24
6128;BME280;7073;42.672;23.256;2022-11-02T11:28:22;94854.41;;;28.30;26.30
6128;BME280;7073;42.672;23.256;2022-11-02T11:31:04;94861.66;;;28.38;26.48
6128;BME280;7073;42.672;23.256;2022-11-02T11:33:33;94846.69;;;28.55;25.87
6128;BME280;7073;42.672;23.256;2022-11-02T11:36:07;94851.75;;;28.73;25.74
6128;BME280;7073;42.672;23.256;2022-11-02T11:38:35;94841.78;;;28.91;26.02
6128;BME280;7073;42.672;23.256;2022-11-02T11:41:03;94842.25;;;28.93;25.89
6128;BME280;7073;42.672;23.256;2022-11-02T11:43:34;94841.50;;;28.84;25.69
6128;BME280;7073;42.672;23.256;2022-11-02T11:46:06;94835.47;;;29.04;25.99
6128;BME280;7073;42.672;23.256;2022-11-02T11:48:35;94834.97;;;29.10;25.71
6128;BME280;7073;42.672;23.256;2022-11-02T11:51:17;94840.03;;;29.21;25.82
6128;BME280;7073;42.672;23.256;2022-11-02T11:54:02;94823.84;;;29.46;25.55
6128;BME280;7073;42.672;23.256;2022-11-02T11:56:30;94826.00;;;30.20;25.25
6128;BME280;7073;42.672;23.256;2022-11-02T11:58:58;94833.50;;;29.77;24.96
6128;BME280;7073;42.672;23.256;2022-11-02T12:01:37;94819.75;;;29.40;24.94
6128;BME280;7073;42.672;23.256;2022-11-02T12:04:05;94821.50;;;29.74;24.83
6128;BME280;7073;42.672;23.256;2022-11-02T12:06:39;94820.06;;;29.77;25.43
6128;BME280;7073;42.672;23.256;2022-11-02T12:09:13;94803.97;;;29.39;25.62
6128;BME280;7073;42.672;23.256;2022-11-02T12:11:51;94811.94;;;29.56;25.23
6128;BME280;7073;42.672;23.256;2022-11-02T12:14:32;94800.84;;;29.28;25.95
6128;BME280;7073;42.672;23.256;2022-11-02T12:17:23;94803.97;;;29.39;25.14
6128;BME280;7073;42.672;23.256;2022-11-02T12:20:00;94803.94;;;29.47;25.57
6128;BME280;7073;42.672;23.256;2022-11-02T12:22:39;94790.88;;;29.20;26.25
6128;BME280;7073;42.672;23.256;2022-11-02T12:25:26;94796.88;;;29.34;25.98
6128;BME280;7073;42.672;23.256;2022-11-02T12:27:59;94793.16;;;28.92;25.85
6128;BME280;7073;42.672;23.256;2022-11-02T12:30:39;94792.44;;;29.38;25.73
6128;BME280;7073;42.672;23.256;2022-11-02T12:33:23;94792.63;;;30.21;24.87
6128;BME280;7073;42.672;23.256;2022-11-02T12:36:01;94790.19;;;30.07;25.39
6128;BME280;7073;42.672;23.256;2022-11-02T12:39:00;94782.13;;;29.49;24.85
6128;BME280;7073;42.672;23.256;2022-11-02T12:41:43;94777.44;;;29.66;25.85
6128;BME280;7073;42.672;23.256;2022-11-02T12:44:26;94767.09;;;29.48;25.22
6128;BME280;7073;42.672;23.256;2022-11-02T12:47:04;94772.56;;;29.31;26.06
6128;BME280;7073;42.672;23.256;2022-11-02T12:49:40;94769.50;;;28.94;26.40
6128;BME280;7073;42.672;23.256;2022-11-02T12:52:21;94761.53;;;29.24;25.91
6128;BME280;7073;42.672;23.256;2022-11-02T12:54:55;94768.91;;;29.35;25.61
6128;BME280;7073;42.672;23.256;2022-11-02T12:57:24;94765.19;;;29.48;25.50
6128;BME280;7073;42.672;23.256;2022-11-02T12:59:57;94735.00;;;29.22;25.48
6128;BME280;7073;42.672;23.256;2022-11-02T13:02:29;94759.09;;;29.39;25.34
6128;BME280;7073;42.672;23.256;2022-11-02T13:05:01;94762.53;;;29.02;25.47
6128;BME280;7073;42.672;23.256;2022-11-02T13:07:32;94758.09;;;29.52;25.23
6128;BME280;7073;42.672;23.256;2022-11-02T13:10:04;94761.91;;;29.43;25.45
6128;BME280;7073;42.672;23.256;2022-11-02T13:12:32;94754.78;;;29.00;25.76
6128;BME280;7073;42.672;23.256;2022-11-02T13:15:02;94762.22;;;28.95;26.79
6128;BME280;7073;42.672;23.256;2022-11-02T13:17:37;94757.34;;;28.97;25.64
6128;BME280;7073;42.672;23.256;2022-11-02T13:20:13;94754.44;;;29.10;26.06
6128;BME280;7073;42.672;23.256;2022-11-02T13:22:42;94747.22;;;28.94;25.57
6128;BME280;7073;42.672;23.256;2022-11-02T13:25:15;94756.69;;;29.00;25.65
6128;BME280;7073;42.672;23.256;2022-11-02T13:27:47;94756.09;;;28.77;25.97
6128;BME280;7073;42.672;23.256;2022-11-02T13:30:17;94758.34;;;28.75;26.28
6128;BME280;7073;42.672;23.256;2022-11-02T13:32:46;94749.97;;;28.60;26.18